Mc Lain, Mississippi
Current Conditions -  °F | °C
As of 11:53 AM on Saturday 25 Oct 2014 (Local Time) from KHBG Reporting Station
Clear Clear  
Wind Chill: 74°   Ceiling: Unl
Heat Index: 74°   Visibility: 10mi
Dew Point: 56°   Wind: 6mph
Humidity: 53%   Direction: 360°N
Pressure: 30.15"   Gusts: NA
Location:  31.0532°N, 88.8084°W
Report Text: KHBG 251653Z AUTO 36005KT 10SM CLR 23/13 A3015 RMK AO2 SLP208 T02330133
Loading
Personal Weather Stations






























Interactive Weather Map New forecast layout! Learn more

10-Day Weather Forecast

Advertisements
Track Severe Weather on mobile